createdAt,value
2018-12-09T00:02:26.951Z,82.51
2018-12-09T00:04:54.707Z,83.09
2018-12-09T00:07:22.625Z,82.52
2018-12-09T00:09:50.139Z,81.42
2018-12-09T00:12:17.791Z,81.08
2018-12-09T00:14:45.471Z,81.16
2018-12-09T00:17:13.244Z,81.17
2018-12-09T00:19:41.071Z,79.68
2018-12-09T00:22:11.622Z,78.90
2018-12-09T00:24:39.109Z,78.17
2018-12-09T00:27:06.709Z,78.47
2018-12-09T00:29:34.465Z,78.24
2018-12-09T00:32:02.264Z,77.67
2018-12-09T00:34:29.710Z,78.52
2018-12-09T00:36:57.348Z,77.64
2018-12-09T00:39:24.758Z,77.79
2018-12-09T00:41:52.416Z,77.47
2018-12-09T00:44:19.778Z,76.95
2018-12-09T00:46:47.487Z,77.08
2018-12-09T00:49:15.168Z,77.77
2018-12-09T00:51:43.012Z,77.57
2018-12-09T00:54:10.604Z,77.18
2018-12-09T00:56:38.595Z,77.69
2018-12-09T00:59:06.702Z,77.95
2018-12-09T01:01:34.636Z,77.77
2018-12-09T01:04:02.317Z,77.63
2018-12-09T01:06:30.123Z,77.20
2018-12-09T01:08:57.458Z,77.39
2018-12-09T01:11:25.158Z,76.82
2018-12-09T01:13:52.764Z,75.98
2018-12-09T01:16:22.287Z,76.63
2018-12-09T01:18:49.873Z,77.30
2018-12-09T01:21:17.597Z,76.97
2018-12-09T01:23:45.167Z,77.27
2018-12-09T01:26:12.693Z,77.16
2018-12-09T01:28:40.798Z,76.99
2018-12-09T01:31:08.485Z,76.76
2018-12-09T01:33:36.249Z,76.43
2018-12-09T01:36:04.224Z,76.53
2018-12-09T01:38:31.847Z,76.13
2018-12-09T01:40:59.825Z,76.41
2018-12-09T01:43:27.457Z,76.27
2018-12-09T01:45:55.113Z,76.30
2018-12-09T01:48:22.712Z,76.68
2018-12-09T01:50:50.096Z,76.04
2018-12-09T01:53:29.307Z,77.29
2018-12-09T01:55:57.315Z,77.86
2018-12-09T01:58:24.921Z,79.02
2018-12-09T02:00:52.645Z,78.89
2018-12-09T02:03:20.385Z,80.08
2018-12-09T02:05:47.791Z,80.92
2018-12-09T02:08:15.401Z,81.97
2018-12-09T02:10:43.171Z,81.42
2018-12-09T02:13:11.067Z,82.02
2018-12-09T02:15:38.689Z,82.42
2018-12-09T02:18:06.786Z,82.64
2018-12-09T02:20:34.173Z,83.21
2018-12-09T02:23:01.808Z,83.22
2018-12-09T02:25:29.401Z,83.17
2018-12-09T02:27:57.045Z,82.65
2018-12-09T02:30:24.947Z,82.03
2018-12-09T02:32:52.755Z,81.66
2018-12-09T02:35:20.496Z,81.37
2018-12-09T02:37:48.284Z,81.70
2018-12-09T02:40:16.020Z,81.29
2018-12-09T02:42:43.820Z,80.41
2018-12-09T02:45:11.418Z,79.83
2018-12-09T02:47:39.133Z,79.60
2018-12-09T02:50:06.463Z,79.27
2018-12-09T02:52:34.429Z,77.99
2018-12-09T02:55:01.919Z,78.15
2018-12-09T02:57:29.535Z,78.35
2018-12-09T02:59:57.487Z,77.97
2018-12-09T03:02:25.198Z,76.37
2018-12-09T03:04:53.050Z,75.71
2018-12-09T03:07:20.627Z,75.02
2018-12-09T03:09:48.267Z,74.91
2018-12-09T03:12:15.721Z,74.46
2018-12-09T03:14:43.400Z,74.43
2018-12-09T03:17:11.127Z,74.80
2018-12-09T03:19:38.723Z,73.90
2018-12-09T03:22:06.377Z,74.90
2018-12-09T03:24:34.319Z,73.71
2018-12-09T03:27:02.208Z,74.01
2018-12-09T03:29:29.759Z,74.52
2018-12-09T03:31:57.446Z,75.34
2018-12-09T03:34:25.146Z,76.27
2018-12-09T03:36:52.632Z,76.60
2018-12-09T03:39:20.329Z,76.70
2018-12-09T03:41:47.803Z,77.62
2018-12-09T03:44:15.476Z,77.80
2018-12-09T03:46:43.410Z,78.00
2018-12-09T03:49:11.287Z,78.17
2018-12-09T03:51:38.944Z,77.53
2018-12-09T03:54:06.655Z,77.62
2018-12-09T03:56:34.377Z,77.75
2018-12-09T03:59:02.067Z,77.15
2018-12-09T04:01:29.696Z,77.40
2018-12-09T04:03:57.470Z,78.06
2018-12-09T04:06:25.050Z,77.79
2018-12-09T04:08:52.805Z,77.03
2018-12-09T04:11:20.480Z,77.04
2018-12-09T04:13:47.939Z,77.20
2018-12-09T04:16:15.560Z,77.04
2018-12-09T04:18:42.892Z,75.91
2018-12-09T04:21:10.760Z,76.00
2018-12-09T04:23:38.219Z,76.08
2018-12-09T04:26:06.248Z,76.21
2018-12-09T04:28:33.874Z,77.40
2018-12-09T04:31:01.536Z,78.18
2018-12-09T04:33:29.346Z,79.03
2018-12-09T04:35:56.858Z,79.54
2018-12-09T04:38:24.600Z,80.18
2018-12-09T04:40:52.393Z,79.84
2018-12-09T04:43:20.098Z,80.17
2018-12-09T04:45:47.851Z,79.93
2018-12-09T04:48:15.669Z,80.08
2018-12-09T04:50:43.100Z,79.37
2018-12-09T04:53:10.700Z,79.06
2018-12-09T04:55:45.078Z,79.54
2018-12-09T04:58:12.831Z,80.16
2018-12-09T05:00:55.240Z,80.67
2018-12-09T05:03:22.990Z,80.32
2018-12-09T05:05:50.707Z,80.19
2018-12-09T05:08:18.300Z,80.48
2018-12-09T05:10:45.887Z,80.21
2018-12-09T05:13:13.728Z,80.38
2018-12-09T05:15:41.195Z,80.87
2018-12-09T05:18:09.198Z,81.10
2018-12-09T05:20:36.580Z,80.51
2018-12-09T05:23:04.309Z,81.06
2018-12-09T05:25:32.012Z,80.79
2018-12-09T05:27:59.648Z,81.01
2018-12-09T05:30:27.224Z,79.73
2018-12-09T05:32:54.837Z,79.10
2018-12-09T05:35:22.417Z,79.58
2018-12-09T05:37:50.020Z,79.22
2018-12-09T05:40:17.680Z,78.92
2018-12-09T05:42:45.443Z,79.58
2018-12-09T05:45:13.033Z,79.70
2018-12-09T05:47:41.072Z,79.59
2018-12-09T05:50:08.746Z,79.15
2018-12-09T05:52:36.317Z,78.71
2018-12-09T05:55:05.511Z,78.88
2018-12-09T05:57:32.898Z,78.99
2018-12-09T06:00:00.866Z,79.13
2018-12-09T06:02:39.806Z,78.84
2018-12-09T06:05:07.424Z,79.20
2018-12-09T06:07:35.076Z,78.73
2018-12-09T06:10:04.105Z,78.96
2018-12-09T06:12:31.701Z,79.24
2018-12-09T06:14:59.257Z,78.73
2018-12-09T06:17:26.971Z,78.49
2018-12-09T06:19:54.666Z,77.79
2018-12-09T06:22:22.853Z,77.50
2018-12-09T06:24:50.556Z,77.19
2018-12-09T06:27:18.361Z,77.48
2018-12-09T06:29:46.125Z,77.94
2018-12-09T06:32:13.870Z,77.16
2018-12-09T06:34:41.843Z,76.96
2018-12-09T06:37:09.483Z,77.21
2018-12-09T06:39:36.831Z,76.93
2018-12-09T06:42:04.515Z,76.26
2018-12-09T06:44:31.857Z,75.23
2018-12-09T06:46:59.455Z,75.47
2018-12-09T06:49:27.033Z,76.09
2018-12-09T06:51:54.783Z,77.04
2018-12-09T06:54:22.281Z,77.05
2018-12-09T06:56:50.157Z,76.55
2018-12-09T06:59:17.960Z,76.80
2018-12-09T07:01:45.697Z,76.61
2018-12-09T07:04:13.505Z,75.43
2018-12-09T07:06:41.095Z,76.34
2018-12-09T07:09:08.475Z,76.84
2018-12-09T07:11:36.059Z,75.92
2018-12-09T07:14:04.177Z,76.39
2018-12-09T07:16:31.859Z,75.58
2018-12-09T07:18:59.676Z,75.36
2018-12-09T07:21:27.460Z,75.13
2018-12-09T07:23:55.384Z,75.47
2018-12-09T07:26:23.496Z,75.70
2018-12-09T07:28:51.082Z,75.63
2018-12-09T07:31:18.492Z,75.18
2018-12-09T07:33:46.056Z,75.09
2018-12-09T07:36:13.924Z,75.31
2018-12-09T07:38:41.564Z,75.04
2018-12-09T07:41:09.204Z,75.28
2018-12-09T07:43:36.897Z,74.75
2018-12-09T07:46:04.811Z,74.92
2018-12-09T07:48:32.324Z,74.23
2018-12-09T07:50:59.687Z,73.92
2018-12-09T07:53:27.620Z,74.13
2018-12-09T07:55:55.072Z,73.87
2018-12-09T07:58:22.745Z,72.97
2018-12-09T08:00:50.432Z,72.79
2018-12-09T08:03:18.209Z,73.52
2018-12-09T08:05:45.542Z,72.85
2018-12-09T08:08:12.946Z,71.97
2018-12-09T08:10:40.503Z,71.31
2018-12-09T08:13:08.002Z,70.72
2018-12-09T08:15:35.796Z,71.09
2018-12-09T08:18:03.625Z,70.96
2018-12-09T08:20:31.078Z,70.95
2018-12-09T08:22:58.716Z,70.39
2018-12-09T08:25:26.361Z,69.30
2018-12-09T08:27:54.072Z,70.33
2018-12-09T08:30:21.766Z,70.39
2018-12-09T08:32:49.341Z,69.62
2018-12-09T08:35:16.936Z,68.90
2018-12-09T08:37:44.667Z,68.33
2018-12-09T08:40:12.328Z,68.67
2018-12-09T08:42:40.012Z,69.21
2018-12-09T08:45:07.504Z,68.37
2018-12-09T08:47:35.166Z,68.32
2018-12-09T08:50:02.672Z,68.86
2018-12-09T08:52:30.320Z,68.68
2018-12-09T08:54:57.877Z,69.21
2018-12-09T08:57:25.526Z,68.80
2018-12-09T08:59:53.012Z,69.09
2018-12-09T09:02:20.844Z,69.63
2018-12-09T09:04:48.537Z,69.97
2018-12-09T09:07:16.263Z,70.17
2018-12-09T09:09:43.912Z,70.09
2018-12-09T09:12:11.622Z,69.85
2018-12-09T09:14:39.120Z,69.27
2018-12-09T09:17:06.819Z,69.31
2018-12-09T09:19:34.449Z,69.07
2018-12-09T09:22:02.190Z,69.63
2018-12-09T09:24:29.885Z,70.69
2018-12-09T09:26:57.600Z,69.97
2018-12-09T09:29:25.197Z,69.42
2018-12-09T09:31:52.846Z,69.66
2018-12-09T09:34:20.410Z,69.00
2018-12-09T09:36:48.071Z,69.47
2018-12-09T09:39:15.904Z,69.70
2018-12-09T09:41:44.484Z,69.17
2018-12-09T09:44:12.216Z,69.11
2018-12-09T09:46:40.136Z,70.10
2018-12-09T09:49:07.808Z,70.11
2018-12-09T09:51:35.573Z,71.08
2018-12-09T09:54:03.396Z,69.90
2018-12-09T09:56:31.232Z,70.86
2018-12-09T09:58:58.969Z,70.52
2018-12-09T10:01:26.547Z,69.25
2018-12-09T10:03:54.143Z,69.72
2018-12-09T10:06:21.804Z,69.56
2018-12-09T10:08:49.488Z,68.98
2018-12-09T10:11:17.100Z,69.13
2018-12-09T10:13:44.796Z,69.13
2018-12-09T10:16:12.392Z,68.87
2018-12-09T10:18:39.826Z,69.27
2018-12-09T10:21:07.324Z,67.69
2018-12-09T10:23:34.692Z,68.40
2018-12-09T10:26:02.312Z,68.52
2018-12-09T10:28:29.958Z,67.12
2018-12-09T10:30:57.657Z,66.87
2018-12-09T10:33:25.340Z,66.34
2018-12-09T10:35:52.987Z,66.12
2018-12-09T10:38:20.530Z,65.91
2018-12-09T10:40:48.108Z,66.01
2018-12-09T10:43:15.972Z,65.84
2018-12-09T10:45:43.552Z,65.68
2018-12-09T10:48:11.168Z,66.26
2018-12-09T10:50:38.579Z,65.17
2018-12-09T10:53:06.285Z,65.47
2018-12-09T10:55:33.954Z,65.82
2018-12-09T10:58:01.589Z,65.80
2018-12-09T11:00:34.809Z,66.25
2018-12-09T11:03:02.512Z,66.85
2018-12-09T11:05:30.647Z,66.60
2018-12-09T11:07:58.291Z,66.70
2018-12-09T11:10:25.747Z,66.95
2018-12-09T11:12:53.374Z,67.49
2018-12-09T11:15:21.120Z,67.46
2018-12-09T11:17:48.748Z,68.00
2018-12-09T11:20:17.124Z,68.46
2018-12-09T11:22:44.733Z,68.98
2018-12-09T11:25:12.453Z,69.86
2018-12-09T11:27:40.044Z,70.13
2018-12-09T11:30:08.239Z,68.35
2018-12-09T11:32:35.765Z,69.49
2018-12-09T11:35:04.115Z,69.47
2018-12-09T11:37:31.891Z,69.63
2018-12-09T11:39:59.699Z,70.33
2018-12-09T11:42:27.343Z,69.37
2018-12-09T11:44:55.031Z,69.62
2018-12-09T11:47:22.471Z,69.87
2018-12-09T11:49:50.031Z,69.83
2018-12-09T11:52:17.473Z,69.75
2018-12-09T11:54:45.251Z,70.17
2018-12-09T11:57:13.280Z,70.52
2018-12-09T11:59:41.030Z,70.50
2018-12-09T12:02:09.013Z,73.41
2018-12-09T12:04:36.694Z,73.33
2018-12-09T12:07:04.340Z,72.94
2018-12-09T12:09:31.788Z,70.55
2018-12-09T12:12:00.208Z,70.20
2018-12-09T12:14:28.038Z,70.86
2018-12-09T12:16:55.842Z,71.62
2018-12-09T12:19:23.460Z,71.45
2018-12-09T12:21:50.976Z,72.18
2018-12-09T12:24:20.797Z,70.58
2018-12-09T12:26:48.509Z,70.08
2018-12-09T12:29:16.175Z,69.93
2018-12-09T12:31:43.903Z,69.49
2018-12-09T12:34:11.369Z,70.02
2018-12-09T12:36:39.203Z,69.40
2018-12-09T12:39:06.968Z,67.94
2018-12-09T12:41:34.765Z,67.31
2018-12-09T12:44:03.087Z,67.85
2018-12-09T12:46:30.707Z,68.50
2018-12-09T12:48:58.336Z,67.19
2018-12-09T12:51:26.007Z,66.74
2018-12-09T12:53:53.883Z,67.19
2018-12-09T12:56:21.511Z,67.33
2018-12-09T12:58:49.115Z,66.84
2018-12-09T13:01:16.845Z,67.79
2018-12-09T13:03:44.521Z,68.36
2018-12-09T13:06:12.475Z,68.64
2018-12-09T13:08:40.570Z,68.93
2018-12-09T13:11:08.385Z,69.49
2018-12-09T13:13:36.143Z,70.25
2018-12-09T13:16:03.713Z,70.96
2018-12-09T13:18:31.389Z,71.77
2018-12-09T13:20:58.831Z,72.57
2018-12-09T13:23:26.609Z,72.81
2018-12-09T13:25:54.346Z,73.03
2018-12-09T13:28:22.043Z,73.03
2018-12-09T13:30:49.859Z,74.45
2018-12-09T13:33:17.593Z,71.15
2018-12-09T13:35:46.390Z,69.26
2018-12-09T13:38:14.660Z,69.68
2018-12-09T13:40:42.275Z,70.70
2018-12-09T13:43:09.977Z,70.82
2018-12-09T13:45:37.951Z,71.71
2018-12-09T13:48:05.955Z,72.33
2018-12-09T13:50:33.635Z,73.56
2018-12-09T13:53:01.446Z,74.67
2018-12-09T13:55:29.023Z,75.10
2018-12-09T13:57:56.764Z,75.36
2018-12-09T14:00:24.904Z,75.41
2018-12-09T14:02:52.455Z,75.85
2018-12-09T14:05:20.096Z,75.25
2018-12-09T14:07:47.715Z,74.49
2018-12-09T14:10:15.375Z,74.17
2018-12-09T14:12:43.031Z,73.88
2018-12-09T14:15:10.700Z,74.08
2018-12-09T14:17:38.249Z,74.16
2018-12-09T14:20:07.808Z,73.74
2018-12-09T14:22:35.624Z,73.97
2018-12-09T14:25:03.862Z,73.79
2018-12-09T14:27:31.508Z,73.90
2018-12-09T14:29:59.210Z,73.98
2018-12-09T14:32:26.956Z,74.24
2018-12-09T14:34:54.620Z,74.61
2018-12-09T14:37:22.510Z,75.33
2018-12-09T14:39:50.270Z,75.95
2018-12-09T14:42:17.915Z,76.37
2018-12-09T14:44:45.605Z,76.29
2018-12-09T14:47:13.389Z,76.47
2018-12-09T14:49:40.733Z,76.77
2018-12-09T14:52:08.554Z,76.75
2018-12-09T14:54:36.399Z,76.55
2018-12-09T14:57:04.220Z,76.84
2018-12-09T14:59:31.933Z,76.92
2018-12-09T15:01:59.743Z,76.49
2018-12-09T15:04:30.406Z,76.54
2018-12-09T15:06:58.103Z,76.79
2018-12-09T15:09:25.906Z,76.54
2018-12-09T15:11:53.423Z,76.68
2018-12-09T15:14:21.241Z,76.74
2018-12-09T15:16:48.979Z,77.01
2018-12-09T15:19:16.589Z,77.56
2018-12-09T15:21:44.382Z,77.48
2018-12-09T15:24:12.117Z,77.93
2018-12-09T15:26:39.958Z,78.06
2018-12-09T15:29:07.740Z,77.99
2018-12-09T15:31:35.140Z,78.40
2018-12-09T15:34:02.936Z,78.63
2018-12-09T15:36:30.648Z,78.30
2018-12-09T15:38:57.980Z,78.25
2018-12-09T15:41:25.449Z,78.79
2018-12-09T15:43:53.098Z,78.18
2018-12-09T15:46:20.811Z,77.87
2018-12-09T15:48:48.510Z,78.12
2018-12-09T15:51:16.618Z,77.09
2018-12-09T15:53:44.410Z,75.67
2018-12-09T15:56:12.066Z,75.76
2018-12-09T15:58:39.688Z,76.43
2018-12-09T16:01:07.416Z,75.66
2018-12-09T16:03:34.988Z,76.30
2018-12-09T16:06:02.371Z,76.25
2018-12-09T16:08:30.112Z,76.47
2018-12-09T16:10:57.742Z,76.02
2018-12-09T16:13:25.359Z,75.53
2018-12-09T16:15:52.983Z,76.05
2018-12-09T16:18:20.475Z,76.61
2018-12-09T16:20:47.923Z,77.07
2018-12-09T16:23:15.448Z,77.65
2018-12-09T16:25:43.048Z,77.87
2018-12-09T16:28:10.813Z,78.39
2018-12-09T16:30:38.500Z,78.36
2018-12-09T16:33:06.375Z,77.98
2018-12-09T16:35:34.139Z,77.51
2018-12-09T16:38:01.806Z,77.17
2018-12-09T16:40:29.352Z,77.18
2018-12-09T16:42:57.005Z,77.58
2018-12-09T16:45:24.704Z,77.43
2018-12-09T16:47:52.430Z,77.74
2018-12-09T16:50:20.178Z,77.80
2018-12-09T16:52:47.683Z,78.10
2018-12-09T16:55:15.240Z,78.39
2018-12-09T16:57:42.946Z,78.69
2018-12-09T17:00:10.674Z,78.20
2018-12-09T17:02:38.498Z,78.11
2018-12-09T17:05:06.072Z,77.76
2018-12-09T17:07:41.947Z,77.57
2018-12-09T17:10:03.884Z,77.91
2018-12-09T17:12:32.917Z,77.77
2018-12-09T17:15:00.601Z,77.42
2018-12-09T17:17:28.329Z,77.83
2018-12-09T17:19:56.059Z,77.91
2018-12-09T17:22:23.793Z,78.43
2018-12-09T17:24:51.505Z,77.85
2018-12-09T17:27:19.097Z,77.62
2018-12-09T17:29:46.847Z,77.60
2018-12-09T17:32:14.405Z,77.21
2018-12-09T17:34:42.761Z,77.39
2018-12-09T17:37:10.567Z,76.89
2018-12-09T17:39:40.333Z,77.06
2018-12-09T17:42:08.032Z,77.06
2018-12-09T17:44:35.823Z,76.85
2018-12-09T17:47:03.266Z,76.84
2018-12-09T17:49:31.121Z,75.97
2018-12-09T17:51:59.185Z,75.89
2018-12-09T17:54:27.233Z,74.99
2018-12-09T17:56:55.034Z,75.51
2018-12-09T17:59:22.815Z,75.98
2018-12-09T18:01:50.436Z,76.46
2018-12-09T18:04:17.841Z,76.79
2018-12-09T18:06:45.173Z,77.25
2018-12-09T18:09:12.672Z,77.10
2018-12-09T18:11:41.260Z,76.90
2018-12-09T18:14:10.644Z,77.75
2018-12-09T18:16:38.460Z,78.62
2018-12-09T18:19:06.140Z,79.06
2018-12-09T18:21:33.968Z,79.24
2018-12-09T18:24:01.560Z,79.50
2018-12-09T18:26:29.243Z,79.63
2018-12-09T18:28:56.765Z,79.69
2018-12-09T18:31:24.896Z,79.54
2018-12-09T18:33:52.859Z,80.31
2018-12-09T18:36:20.637Z,80.32
2018-12-09T18:38:48.853Z,81.43
2018-12-09T18:41:16.720Z,81.95
2018-12-09T18:43:44.332Z,82.89
2018-12-09T18:46:11.869Z,83.30
2018-12-09T18:48:39.557Z,83.39
2018-12-09T18:51:07.278Z,83.73
2018-12-09T18:53:35.157Z,83.15
2018-12-09T18:56:02.761Z,81.62
2018-12-09T18:58:30.436Z,81.23
2018-12-09T19:00:58.064Z,81.42
2018-12-09T19:03:25.717Z,81.95
2018-12-09T19:05:53.537Z,82.15
2018-12-09T19:08:21.469Z,82.39
2018-12-09T19:10:48.893Z,82.30
2018-12-09T19:13:16.513Z,81.97
2018-12-09T19:15:43.873Z,81.44
2018-12-09T19:18:11.505Z,80.37
2018-12-09T19:20:38.895Z,79.24
2018-12-09T19:23:06.477Z,78.95
2018-12-09T19:25:34.165Z,78.93
2018-12-09T19:28:02.023Z,78.61
2018-12-09T19:30:29.765Z,78.38
2018-12-09T19:32:57.383Z,78.21
2018-12-09T19:35:25.121Z,78.39
2018-12-09T19:37:52.673Z,79.04
2018-12-09T19:40:20.321Z,78.14
2018-12-09T19:42:47.903Z,79.59
2018-12-09T19:45:15.540Z,79.68
2018-12-09T19:47:43.314Z,79.73
2018-12-09T19:50:11.030Z,79.59
2018-12-09T19:52:38.498Z,79.58
2018-12-09T19:55:06.695Z,79.88
2018-12-09T19:57:34.243Z,79.72
2018-12-09T20:00:01.843Z,79.45
2018-12-09T20:02:29.490Z,79.79
2018-12-09T20:04:57.202Z,79.72
2018-12-09T20:07:24.774Z,79.81
2018-12-09T20:09:52.372Z,79.55
2018-12-09T20:12:20.035Z,79.89
2018-12-09T20:14:47.827Z,80.18
2018-12-09T20:17:15.532Z,80.49
2018-12-09T20:19:44.569Z,80.52
2018-12-09T20:22:12.252Z,79.23
2018-12-09T20:24:40.149Z,78.76
2018-12-09T20:27:07.827Z,79.58
2018-12-09T20:29:35.483Z,78.36
2018-12-09T20:32:03.150Z,79.15
2018-12-09T20:34:30.676Z,80.13
2018-12-09T20:36:58.376Z,80.11
2018-12-09T20:39:25.731Z,79.35
2018-12-09T20:41:53.285Z,78.30
2018-12-09T20:44:20.675Z,78.42
2018-12-09T20:46:48.543Z,78.41
2018-12-09T20:49:16.141Z,78.54
2018-12-09T20:51:43.810Z,78.30
2018-12-09T20:54:11.430Z,77.96
2018-12-09T20:56:39.138Z,77.88
2018-12-09T20:59:06.819Z,77.10
2018-12-09T21:01:34.347Z,76.73
2018-12-09T21:04:01.954Z,77.05
2018-12-09T21:06:29.647Z,77.12
2018-12-09T21:08:59.095Z,77.12
2018-12-09T21:11:26.814Z,76.50
2018-12-09T21:13:54.390Z,76.51
2018-12-09T21:16:22.089Z,77.15
2018-12-09T21:18:49.730Z,77.65
2018-12-09T21:21:17.336Z,78.17
2018-12-09T21:23:45.169Z,78.43
2018-12-09T21:26:12.584Z,78.59
2018-12-09T21:28:40.332Z,77.83
2018-12-09T21:31:08.866Z,78.01
2018-12-09T21:33:36.613Z,77.66
2018-12-09T21:36:04.084Z,76.66
2018-12-09T21:38:31.715Z,77.28
2018-12-09T21:40:59.350Z,77.74
2018-12-09T21:43:27.048Z,77.77
2018-12-09T21:45:54.523Z,77.25
2018-12-09T21:48:22.096Z,77.04
2018-12-09T21:50:49.556Z,77.69
2018-12-09T21:53:17.169Z,78.40
2018-12-09T21:55:44.808Z,78.39
2018-12-09T21:58:12.536Z,78.34
2018-12-09T22:00:40.143Z,78.43
2018-12-09T22:03:08.757Z,78.79
2018-12-09T22:05:36.405Z,78.71
2018-12-09T22:08:03.853Z,78.76
2018-12-09T22:10:31.557Z,79.04
2018-12-09T22:12:59.094Z,79.79
2018-12-09T22:15:26.642Z,79.67
2018-12-09T22:17:54.373Z,79.63
2018-12-09T22:20:22.101Z,80.05
2018-12-09T22:22:49.949Z,79.76
2018-12-09T22:25:17.656Z,79.71
2018-12-09T22:27:45.416Z,79.86
2018-12-09T22:30:13.133Z,79.53
2018-12-09T22:32:40.734Z,78.80
2018-12-09T22:35:08.356Z,77.90
2018-12-09T22:37:36.054Z,78.25
2018-12-09T22:40:04.738Z,78.88
2018-12-09T22:42:32.313Z,79.50
2018-12-09T22:44:59.902Z,79.76
2018-12-09T22:47:27.570Z,79.78
2018-12-09T22:49:55.007Z,80.05
2018-12-09T22:52:22.618Z,79.17
2018-12-09T22:54:50.022Z,78.61
2018-12-09T22:57:17.621Z,78.50
2018-12-09T22:59:45.409Z,78.63
2018-12-09T23:02:18.839Z,78.64
2018-12-09T23:04:46.563Z,79.08
2018-12-09T23:07:19.782Z,79.17
2018-12-09T23:09:47.440Z,79.73
2018-12-09T23:12:15.240Z,79.88
2018-12-09T23:14:42.768Z,80.30
2018-12-09T23:17:10.385Z,80.12
2018-12-09T23:19:37.976Z,80.21
2018-12-09T23:22:05.527Z,80.51
2018-12-09T23:24:33.244Z,79.40
2018-12-09T23:27:01.046Z,78.69
2018-12-09T23:29:28.549Z,78.29
2018-12-09T23:31:57.156Z,78.23
2018-12-09T23:34:24.887Z,77.64
2018-12-09T23:36:52.295Z,77.03
2018-12-09T23:39:19.975Z,75.35
2018-12-09T23:41:47.355Z,75.68
2018-12-09T23:44:15.083Z,75.36
2018-12-09T23:46:42.803Z,75.79
2018-12-09T23:49:10.489Z,76.47
2018-12-09T23:51:38.166Z,76.54
2018-12-09T23:54:05.909Z,76.69
2018-12-09T23:56:33.385Z,75.98
2018-12-09T23:59:00.916Z,76.18
